Time;durP1;ratioP1;P1;durP2;ratioP2;P2;SDS_P1;SDS_P2;PMS_P1;PMS_P2;Temp;Humidity;BMP_temperature;BMP_pressure;BME280_temperature;BME280_humidity;BME280_pressure;Samples;Min_cycle;Max_cycle;Signal;HPM_P1;HPM_P2
2022/09/07 00:01:37;;;;;;;6.15;2.40;;;;;;;19.64;70.37;99470.50;12257594;19;20007;-80
2022/09/07 00:05:44;;;;;;;4.30;2.35;;;;;;;19.68;70.36;99488.31;12232097;19;20011;-80
2022/09/07 00:09:45;;;;;;;4.38;2.00;;;;;;;19.73;70.31;99484.56;12236320;19;20010;-79
2022/09/07 00:13:48;;;;;;;3.30;2.28;;;;;;;19.78;69.92;99481.63;12235136;19;20010;-82
2022/09/07 00:17:50;;;;;;;3.83;2.20;;;;;;;19.85;69.90;99483.97;12213263;19;20014;-80
2022/09/07 00:21:51;;;;;;;4.35;2.65;;;;;;;19.89;69.78;99485.81;12228526;19;20021;-80
2022/09/07 00:25:58;;;;;;;5.32;2.60;;;;;;;19.93;69.76;99500.81;12226295;19;20007;-80
2022/09/07 00:29:59;;;;;;;4.47;2.53;;;;;;;19.91;70.58;99500.31;12203636;19;20080;-79
2022/09/07 00:34:01;;;;;;;5.38;2.78;;;;;;;19.91;70.63;99496.69;12222887;19;20011;-80
2022/09/07 00:38:03;;;;;;;5.45;2.67;;;;;;;19.84;70.62;99490.69;12223959;19;20058;-81
2022/09/07 00:42:05;;;;;;;3.53;2.40;;;;;;;19.83;70.90;99489.88;12201965;19;20015;-80
2022/09/07 00:46:31;;;;;;;4.55;2.88;;;;;;;19.84;71.04;99494.34;12226949;19;20015;-80
2022/09/07 00:50:39;;;;;;;3.83;2.60;;;;;;;19.85;71.29;99484.81;12204142;19;20014;-80
2022/09/07 00:54:49;;;;;;;6.65;2.85;;;;;;;19.85;71.77;99497.97;12222930;19;20070;-80
2022/09/07 00:58:52;;;;;;;6.57;2.38;;;;;;;19.85;71.86;99486.78;12225005;19;20015;-80
2022/09/07 01:02:57;;;;;;;5.55;2.65;;;;;;;19.81;72.32;99469.81;12193139;19;20011;-80
2022/09/07 01:07:00;;;;;;;3.75;2.55;;;;;;;19.78;72.47;99478.81;12221404;19;20017;-81
2022/09/07 01:11:02;;;;;;;4.47;2.95;;;;;;;19.63;74.63;99490.38;12231235;19;20030;-81
2022/09/07 01:15:04;;;;;;;9.47;3.10;;;;;;;19.47;75.17;99473.16;12208170;19;20011;-81
2022/09/07 01:19:28;;;;;;;6.80;3.97;;;;;;;19.33;79.09;99481.59;12230367;19;20006;-80
2022/09/07 01:23:55;;;;;;;7.05;4.13;;;;;;;19.16;82.78;99465.53;12208280;19;20352;-80
2022/09/07 01:28:15;;;;;;;6.13;3.80;;;;;;;18.97;87.69;99423.78;12228678;19;20007;-80
2022/09/07 01:32:47;;;;;;;6.60;4.10;;;;;;;18.89;88.38;99421.75;12213918;19;20007;-80
2022/09/07 01:36:55;;;;;;;5.70;3.75;;;;;;;18.86;86.85;99433.56;12227281;19;20014;-80
2022/09/07 01:41:13;;;;;;;5.95;4.03;;;;;;;18.87;89.07;99421.25;12221136;19;20027;-79
2022/09/07 01:45:18;;;;;;;7.93;3.92;;;;;;;18.81;88.99;99458.78;12206643;19;20018;-81
2022/09/07 01:49:28;;;;;;;7.07;3.97;;;;;;;18.76;91.08;99504.38;12227479;19;20018;-81
2022/09/07 01:53:57;;;;;;;7.97;4.65;;;;;;;18.71;93.99;99545.47;12208866;19;20021;-80
2022/09/07 01:58:10;;;;;;;11.13;4.40;;;;;;;18.72;93.92;99549.94;12221720;19;20011;-80
2022/09/07 02:02:16;;;;;;;11.75;5.78;;;;;;;18.72;94.42;99561.94;12231004;19;20024;-80
2022/09/07 02:06:23;;;;;;;6.93;4.35;;;;;;;18.73;94.16;99563.59;12203210;19;20007;-80
2022/09/07 02:10:39;;;;;;;12.15;4.80;;;;;;;18.75;95.73;99589.25;12225566;19;20018;-80
2022/09/07 02:14:47;;;;;;;7.65;4.97;;;;;;;18.62;100.00;99682.97;12201881;19;20022;-81
2022/09/07 02:19:03;;;;;;;18.20;8.32;;;;;;;18.50;100.00;99642.72;12213722;19;20448;-81
2022/09/07 02:23:15;;;;;;;20.15;10.60;;;;;;;18.32;100.00;99636.06;12223610;19;20010;-82
2022/09/07 02:27:23;;;;;;;19.40;11.18;;;;;;;18.27;100.00;99611.06;12198343;19;20011;-80
2022/09/07 02:31:25;;;;;;;25.98;12.55;;;;;;;18.22;100.00;99586.88;12219756;19;20845;-81
2022/09/07 02:35:27;;;;;;;23.88;12.60;;;;;;;18.20;100.00;99573.25;12195671;19;20007;-80
2022/09/07 02:39:29;;;;;;;22.88;11.65;;;;;;;18.17;100.00;99573.88;12221127;19;20102;-81
2022/09/07 02:43:31;;;;;;;26.83;13.40;;;;;;;18.21;100.00;99568.50;12215711;19;20003;-80
2022/09/07 02:47:54;;;;;;;31.00;14.10;;;;;;;18.22;100.00;99543.06;12189075;19;20027;-79
2022/09/07 02:52:13;;;;;;;27.15;14.20;;;;;;;18.13;100.00;99482.75;12216091;19;20006;-81
2022/09/07 02:56:34;;;;;;;29.48;14.23;;;;;;;18.10;100.00;99455.47;12214169;19;20018;-81
2022/09/07 03:00:53;;;;;;;25.55;12.73;;;;;;;18.06;100.00;99460.84;12194440;19;20586;-81
2022/09/07 03:05:03;;;;;;;23.27;12.30;;;;;;;18.04;100.00;99451.97;12223100;19;20006;-81
2022/09/07 03:09:12;;;;;;;27.90;14.95;;;;;;;18.00;100.00;99437.00;12201997;19;20002;-81
2022/09/07 03:13:23;;;;;;;25.75;15.07;;;;;;;17.94;100.00;99418.72;12217129;19;20082;-81
2022/09/07 03:17:24;;;;;;;20.65;11.48;;;;;;;17.90;100.00;99403.72;12195169;19;20011;-79
2022/09/07 03:21:26;;;;;;;18.17;11.27;;;;;;;17.90;100.00;99412.09;12216530;19;20014;-80
2022/09/07 03:25:27;;;;;;;13.63;8.95;;;;;;;17.90;100.00;99426.03;12209355;19;20483;-82
2022/09/07 03:29:29;;;;;;;15.48;9.48;;;;;;;17.90;100.00;99421.28;12188747;19;20014;-82
2022/09/07 03:33:31;;;;;;;18.98;10.20;;;;;;;17.94;100.00;99413.16;12213487;19;20010;-80
2022/09/07 03:37:36;;;;;;;21.38;10.82;;;;;;;17.95;100.00;99401.66;12208482;19;20103;-81
2022/09/07 03:41:38;;;;;;;19.92;10.73;;;;;;;17.98;100.00;99409.41;12186761;19;20109;-81
2022/09/07 03:45:40;;;;;;;15.98;9.48;;;;;;;18.02;100.00;99417.97;12202862;19;20023;-80
2022/09/07 03:49:42;;;;;;;13.63;8.27;;;;;;;18.05;100.00;99413.75;12206758;19;20491;-81
2022/09/07 03:53:45;;;;;;;19.95;9.05;;;;;;;18.02;100.00;99425.53;12183552;19;20050;-80
2022/09/07 03:57:47;;;;;;;15.98;8.70;;;;;;;17.98;100.00;99437.28;12207868;19;20102;-81
2022/09/07 04:01:48;;;;;;;13.93;8.98;;;;;;;17.96;100.00;99436.75;12207125;19;20065;-82
2022/09/07 04:05:50;;;;;;;17.75;10.07;;;;;;;17.95;100.00;99437.91;12181811;19;20007;-82
2022/09/07 04:09:52;;;;;;;21.33;10.73;;;;;;;17.98;100.00;99439.25;12203914;19;20799;-81
2022/09/07 04:13:53;;;;;;;20.75;11.40;;;;;;;17.99;100.00;99444.53;12202912;19;20110;-80
2022/09/07 04:17:55;;;;;;;21.77;11.13;;;;;;;17.99;100.00;99454.84;12182692;19;20129;-82
2022/09/07 04:21:57;;;;;;;18.45;8.70;;;;;;;17.91;100.00;99466.72;12203532;19;20106;-82
2022/09/07 04:25:58;;;;;;;16.73;10.45;;;;;;;17.92;100.00;99460.81;12199773;19;20031;-81
2022/09/07 04:30:00;;;;;;;15.80;10.23;;;;;;;17.93;100.00;99464.44;12184121;19;20010;-82
2022/09/07 04:34:03;;;;;;;19.55;10.98;;;;;;;17.95;100.00;99463.00;12206249;19;21367;-81
2022/09/07 04:38:05;;;;;;;;;;;;;;;17.95;100.00;99462.19;12207838;19;20010;-80
2022/09/07 04:42:07;;;;;;;24.20;12.50;;;;;;;17.88;100.00;99470.94;12192664;19;19921;-81
2022/09/07 04:46:25;;;;;;;24.90;14.88;;;;;;;17.84;100.00;99486.63;12210468;19;20010;-81
2022/09/07 04:50:26;;;;;;;34.22;16.42;;;;;;;17.80;100.00;99466.06;12194641;19;20024;-81
2022/09/07 04:54:28;;;;;;;43.78;17.42;;;;;;;17.73;100.00;99483.16;12214819;19;20114;-81
2022/09/07 04:58:30;;;;;;;39.65;18.40;;;;;;;17.65;100.00;99485.81;12217053;19;20014;-81
2022/09/07 05:02:32;;;;;;;40.08;19.25;;;;;;;17.59;100.00;99499.00;12197310;19;20006;-81
2022/09/07 05:06:34;;;;;;;37.75;19.65;;;;;;;17.54;100.00;99499.06;12212831;19;20007;-80
2022/09/07 05:10:35;;;;;;;43.47;20.35;;;;;;;17.44;100.00;99500.09;12215419;19;20043;-82
2022/09/07 05:14:37;;;;;;;46.40;21.90;;;;;;;17.45;100.00;99500.91;12195992;19;20119;-82
2022/09/07 05:18:38;;;;;;;40.28;20.10;;;;;;;17.46;100.00;99505.34;12201972;19;20114;-82
2022/09/07 05:22:40;;;;;;;40.92;21.10;;;;;;;17.49;100.00;99507.50;12219432;19;20021;-82
2022/09/07 05:26:42;;;;;;;47.88;21.20;;;;;;;17.49;100.00;99502.78;12198698;19;20015;-82
2022/09/07 05:30:43;;;;;;;42.92;20.80;;;;;;;17.49;100.00;99513.09;12224776;19;20074;-83
2022/09/07 05:35:05;;;;;;;50.65;21.50;;;;;;;17.48;100.00;99509.47;12215336;19;20467;-81
2022/09/07 05:39:08;;;;;;;44.95;20.75;;;;;;;17.49;100.00;99513.09;12197545;19;20086;-82
2022/09/07 05:43:09;;;;;;;45.92;21.33;;;;;;;17.48;100.00;99517.00;12218679;19;20011;-81
2022/09/07 05:47:11;;;;;;;55.28;22.65;;;;;;;17.49;100.00;99521.44;12218011;19;20408;-82
2022/09/07 05:51:13;;;;;;;58.70;21.93;;;;;;;17.48;100.00;99509.47;12198516;19;20052;-82
2022/09/07 05:55:15;;;;;;;49.40;22.50;;;;;;;17.52;100.00;99512.50;12220466;19;20010;-80
2022/09/07 05:59:30;;;;;;;61.83;24.63;;;;;;;17.58;100.00;99521.59;12199495;19;20042;-82
2022/09/07 06:03:33;;;;;;;54.78;25.17;;;;;;;17.61;100.00;99509.84;12249483;19;20003;-81
2022/09/07 06:07:35;;;;;;;57.50;25.70;;;;;;;17.66;100.00;99518.09;12269287;19;20046;-81
2022/09/07 06:11:37;;;;;;;65.13;27.05;;;;;;;17.73;100.00;99529.72;12217040;19;21061;-82
2022/09/07 06:15:38;;;;;;;66.95;27.25;;;;;;;17.77;100.00;99525.19;12222189;19;20074;-82
2022/09/07 06:19:40;;;;;;;59.50;26.20;;;;;;;17.84;100.00;99514.47;12218145;19;20424;-81
2022/09/07 06:23:43;;;;;;;60.17;26.50;;;;;;;17.92;100.00;99522.16;12197664;19;20024;-82
2022/09/07 06:27:47;;;;;;;63.22;26.02;;;;;;;18.01;100.00;99518.66;12214049;19;20066;-82
2022/09/07 06:31:48;;;;;;;51.95;23.13;;;;;;;18.07;100.00;99515.47;12218340;19;20010;-81
2022/09/07 06:36:13;;;;;;;40.72;21.88;;;;;;;18.14;100.00;99524.25;12191680;19;20030;-81
2022/09/07 06:40:15;;;;;;;42.28;21.52;;;;;;;18.25;100.00;99524.91;12216926;19;20006;-81
2022/09/07 06:44:17;;;;;;;45.72;20.52;;;;;;;18.37;100.00;99528.00;12213003;19;20312;-82
2022/09/07 06:48:19;;;;;;;32.17;17.92;;;;;;;18.51;100.00;99530.00;12214977;19;20031;-82
2022/09/07 06:52:21;;;;;;;29.38;15.57;;;;;;;18.66;100.00;99535.28;12219362;19;20006;-82
2022/09/07 06:56:26;;;;;;;34.15;16.50;;;;;;;18.83;100.00;99535.50;12195457;19;20011;-82
2022/09/07 07:00:27;;;;;;;26.95;14.73;;;;;;;18.99;100.00;99538.78;12217782;19;20014;-82
2022/09/07 07:04:29;;;;;;;19.38;10.93;;;;;;;19.12;100.00;99534.31;12213991;19;20015;-83
2022/09/07 07:08:31;;;;;;;14.43;9.85;;;;;;;19.35;100.00;99549.16;12196690;19;20006;-83
2022/09/07 07:12:33;;;;;;;24.48;9.68;;;;;;;19.54;100.00;99549.84;12218725;19;20417;-82
2022/09/07 07:16:37;;;;;;;16.52;8.27;;;;;;;19.73;100.00;99557.25;12220951;19;20007;-82
2022/09/07 07:20:40;;;;;;;15.65;8.55;;;;;;;19.93;100.00;99545.56;12204861;19;20073;-82
2022/09/07 07:24:42;;;;;;;14.82;7.80;;;;;;;20.19;100.00;99531.72;12229852;19;20010;-83
2022/09/07 07:28:46;;;;;;;12.98;7.30;;;;;;;20.36;100.00;99546.94;12218417;19;20043;-82
2022/09/07 07:33:06;;;;;;;13.85;6.35;;;;;;;20.65;100.00;99552.06;12194745;19;20006;-82
2022/09/07 07:37:08;;;;;;;10.30;5.75;;;;;;;20.91;100.00;99555.78;12216837;19;20007;-82
2022/09/07 07:41:10;;;;;;;12.48;7.25;;;;;;;21.15;100.00;99562.94;12220580;19;20033;-82
2022/09/07 07:45:32;;;;;;;13.93;5.90;;;;;;;21.27;100.00;99565.91;12192962;19;20007;-81
2022/09/07 07:49:54;;;;;;;12.80;6.63;;;;;;;21.51;100.00;99559.03;12213351;19;20275;-83
2022/09/07 07:54:38;;;;;;;12.65;5.70;;;;;;;21.71;100.00;99568.75;12188587;19;20015;-82
2022/09/07 07:58:44;;;;;;;12.77;6.28;;;;;;;21.93;100.00;99573.38;12211316;19;20010;-82
2022/09/07 08:02:45;;;;;;;12.05;5.53;;;;;;;22.11;100.00;99580.63;12190759;19;19999;-81
2022/09/07 08:06:47;;;;;;;11.00;5.20;;;;;;;22.30;100.00;99572.66;12214029;19;20014;-81
2022/09/07 08:10:49;;;;;;;12.25;5.35;;;;;;;22.48;100.00;99581.88;12219606;19;20070;-80
2022/09/07 08:14:52;;;;;;;8.83;5.23;;;;;;;22.56;100.00;99588.63;12197831;19;20035;-82
2022/09/07 08:18:54;;;;;;;7.32;4.90;;;;;;;22.67;100.00;99592.72;12238409;19;20003;-80
2022/09/07 08:22:56;;;;;;;7.88;4.70;;;;;;;22.95;100.00;99595.09;12231834;19;20010;-80
2022/09/07 08:26:58;;;;;;;10.85;4.55;;;;;;;23.33;100.00;99599.88;12201242;19;20010;-79
2022/09/07 08:31:03;;;;;;;12.03;4.67;;;;;;;23.87;99.99;99600.81;12218512;19;20018;-78
2022/09/07 08:35:06;;;;;;;8.77;5.53;;;;;;;23.95;96.65;99601.09;12218121;19;20252;-77
2022/09/07 08:39:07;;;;;;;10.68;4.75;;;;;;;24.26;94.89;99603.44;12200521;19;20009;-78
2022/09/07 08:43:11;;;;;;;9.57;4.80;;;;;;;24.64;91.61;99608.03;12219400;19;20030;-78
2022/09/07 08:47:19;;;;;;;11.80;4.65;;;;;;;24.83;90.53;99611.09;12219107;19;20018;-78
2022/09/07 08:51:32;;;;;;;6.60;4.00;;;;;;;25.23;86.35;99608.47;12199806;19;20510;-78
2022/09/07 08:55:57;;;;;;;10.32;5.20;;;;;;;25.46;81.77;99611.63;12219708;19;20007;-80
2022/09/07 09:00:19;;;;;;;9.45;4.15;;;;;;;25.65;80.77;99613.81;12204861;19;20518;-80
2022/09/07 09:04:24;;;;;;;10.97;3.90;;;;;;;25.62;82.30;99613.72;12225110;19;20391;-79
2022/09/07 09:08:57;;;;;;;10.57;4.28;;;;;;;25.08;83.65;99613.97;12200897;19;20126;-79
2022/09/07 09:13:18;;;;;;;8.15;3.33;;;;;;;25.26;80.14;99618.22;12216785;19;20006;-79
2022/09/07 09:17:43;;;;;;;9.20;3.05;;;;;;;25.61;79.30;99624.19;12202539;19;20007;-79
2022/09/07 09:21:45;;;;;;;6.93;2.85;;;;;;;25.82;77.14;99624.06;12228517;19;20015;-80
2022/09/07 09:25:52;;;;;;;13.37;3.33;;;;;;;25.88;73.56;99625.44;12222375;19;20018;-80
2022/09/07 09:29:54;;;;;;;5.70;2.65;;;;;;;25.88;74.03;99622.63;12197393;19;20011;-79
2022/09/07 09:34:04;;;;;;;11.80;2.93;;;;;;;26.01;75.00;99616.94;12227244;19;20192;-80
2022/09/07 09:38:27;;;;;;;6.10;3.03;;;;;;;26.18;73.83;99613.81;12231040;19;20013;-81
2022/09/07 09:42:33;;;;;;;7.50;2.95;;;;;;;26.31;73.44;99611.75;12211501;19;20461;-80
2022/09/07 09:46:36;;;;;;;11.60;3.35;;;;;;;26.60;71.82;99602.09;12222588;19;20007;-79
2022/09/07 09:50:39;;;;;;;5.70;2.60;;;;;;;27.11;67.90;99604.19;12202418;19;20000;-81
2022/09/07 09:55:03;;;;;;;8.88;2.90;;;;;;;27.37;65.25;99600.81;12232987;19;20034;-80
2022/09/07 09:59:29;;;;;;;8.68;2.13;;;;;;;27.27;62.86;99571.88;12211222;19;20011;-84
2022/09/07 10:03:50;;;;;;;4.32;1.90;;;;;;;27.22;63.46;99577.84;12228727;19;20023;-80
2022/09/07 10:07:55;;;;;;;6.32;2.78;;;;;;;27.20;63.30;99577.38;12226417;19;20330;-79
2022/09/07 10:11:59;;;;;;;5.90;2.63;;;;;;;27.50;62.67;99568.38;12197455;19;20063;-79
2022/09/07 10:16:10;;;;;;;6.65;2.38;;;;;;;27.76;61.90;99569.75;12226393;19;20017;-80
2022/09/07 10:20:14;;;;;;;9.50;3.30;;;;;;;27.82;61.37;99569.13;12227048;19;20020;-80
2022/09/07 10:24:26;;;;;;;7.88;2.83;;;;;;;27.66;60.78;99569.16;12203187;19;20015;-79
2022/09/07 10:28:30;;;;;;;6.70;2.33;;;;;;;27.52;61.07;99556.69;12212125;19;20003;-78
2022/09/07 10:33:09;;;;;;;6.72;2.20;;;;;;;27.65;60.01;99561.84;12205125;19;20025;-79
2022/09/07 10:37:23;;;;;;;5.78;2.20;;;;;;;27.87;59.19;99556.66;12263331;19;20036;-78
2022/09/07 10:41:42;;;;;;;6.57;2.17;;;;;;;28.03;56.89;99554.56;12239812;19;20019;-78
2022/09/07 10:45:52;;;;;;;4.90;2.05;;;;;;;27.64;57.47;99557.38;12261692;19;20010;-80
2022/09/07 10:50:28;;;;;;;4.38;2.28;;;;;;;27.64;58.19;99560.19;12234820;19;20078;-80
2022/09/07 10:54:51;;;;;;;6.07;2.53;;;;;;;28.05;57.52;99555.03;12208353;19;20018;-80
2022/09/07 10:59:14;;;;;;;3.97;1.80;;;;;;;28.35;55.60;99543.88;12229990;19;20038;-79
2022/09/07 11:03:51;;;;;;;5.90;2.28;;;;;;;28.49;56.09;99545.34;12201925;19;20069;-80
2022/09/07 11:08:20;;;;;;;7.68;2.50;;;;;;;28.97;53.59;99535.25;12228710;19;20010;-80
2022/09/07 11:12:29;;;;;;;5.28;2.30;;;;;;;29.14;53.01;99528.25;12209138;19;20018;-80
2022/09/07 11:16:38;;;;;;;6.75;2.20;;;;;;;29.15;51.49;99524.22;12226445;19;20041;-80
2022/09/07 11:20:59;;;;;;;7.20;3.10;;;;;;;29.38;51.03;99526.16;12208642;19;20457;-80
2022/09/07 11:25:18;;;;;;;4.75;2.55;;;;;;;28.71;52.25;99533.22;12228529;19;20863;-79
2022/09/07 11:29:46;;;;;;;4.03;2.17;;;;;;;28.12;54.73;99535.34;12204494;19;20017;-79
2022/09/07 11:33:59;;;;;;;6.28;2.50;;;;;;;28.72;52.76;99534.03;12222793;19;20018;-80
2022/09/07 11:38:27;;;;;;;6.15;2.58;;;;;;;28.84;52.88;99528.16;12209719;19;20014;-80
2022/09/07 11:42:36;;;;;;;7.45;2.42;;;;;;;28.74;53.55;99529.63;12227253;19;20038;-80
2022/09/07 11:47:12;;;;;;;5.97;2.40;;;;;;;29.84;51.40;99520.31;12225232;19;20017;-80
2022/09/07 11:51:25;;;;;;;7.20;2.50;;;;;;;30.98;46.95;99503.63;12206835;19;20078;-79
2022/09/07 11:55:33;;;;;;;10.48;2.50;;;;;;;31.64;45.20;99500.78;12228736;19;20469;-80
2022/09/07 11:59:46;;;;;;;5.57;2.33;;;;;;;31.45;44.33;99513.31;12210812;19;20011;-80
2022/09/07 12:04:23;;;;;;;4.65;2.55;;;;;;;30.35;47.00;99511.16;12229299;19;20070;-80
2022/09/07 12:08:45;;;;;;;7.50;2.25;;;;;;;30.96;45.64;99503.19;12207082;19;20014;-81
2022/09/07 12:13:09;;;;;;;6.35;2.50;;;;;;;31.97;43.94;99496.84;12222938;19;20822;-81
2022/09/07 12:17:39;;;;;;;4.35;2.47;;;;;;;32.70;40.81;99484.38;12245870;19;20044;-80
2022/09/07 12:21:52;;;;;;;4.57;2.55;;;;;;;32.93;39.48;99476.22;12239899;19;20018;-80
2022/09/07 12:26:32;;;;;;;4.22;2.47;;;;;;;32.60;38.90;99472.56;12233193;19;20090;-80
2022/09/07 12:30:34;;;;;;;3.20;2.30;;;;;;;33.36;38.00;99462.66;12198185;19;20116;-80
2022/09/07 12:34:38;;;;;;;;;;;;;;;33.99;37.26;99468.53;12217723;19;20039;-80
2022/09/07 12:39:18;;;;;;;3.55;2.55;;;;;;;34.27;35.55;99458.19;12204063;19;19924;-81
2022/09/07 12:43:20;;;;;;;3.13;2.30;;;;;;;34.83;34.02;99466.72;12228625;19;20019;-82
2022/09/07 12:47:26;;;;;;;;;;;;;;;34.98;34.32;99471.06;12197806;19;20018;-82
2022/09/07 12:51:35;;;;;;;3.38;2.45;;;;;;;35.50;31.87;99456.63;12219616;19;19915;-81
2022/09/07 12:56:09;;;;;;;4.78;2.08;;;;;;;35.39;31.01;99455.94;12220639;19;20006;-81
2022/09/07 13:00:34;;;;;;;4.13;2.20;;;;;;;35.24;31.42;99451.63;12199293;19;20432;-81
2022/09/07 13:05:11;;;;;;;4.57;2.30;;;;;;;35.49;31.75;99449.28;12223542;19;20039;-82
2022/09/07 13:09:33;;;;;;;5.10;2.10;;;;;;;35.13;30.14;99446.00;12206576;19;20369;-80
2022/09/07 13:13:35;;;;;;;;;;;;;;;35.16;30.57;99445.16;12232802;19;20026;-81
2022/09/07 13:17:57;;;;;;;;;;;;;;;35.25;30.89;99445.47;12208057;19;19907;-80
2022/09/07 13:21:58;;;;;;;3.30;2.08;;;;;;;35.29;30.19;99449.09;12231606;19;19907;-80
2022/09/07 13:26:03;;;;;;;4.97;2.33;;;;;;;36.08;29.92;99447.31;12225125;19;20042;-81
2022/09/07 13:30:13;;;;;;;8.95;2.75;;;;;;;35.91;28.99;99449.97;12207063;19;20523;-82
2022/09/07 13:34:33;;;;;;;7.13;1.90;;;;;;;36.05;28.09;99457.59;12222309;19;20502;-81
2022/09/07 13:38:35;;;;;;;2.33;1.38;;;;;;;36.05;27.52;99440.38;12210348;19;20098;-81
2022/09/07 13:42:37;;;;;;;1.85;1.40;;;;;;;35.06;27.30;99443.22;12231345;19;20400;-81
2022/09/07 13:46:58;;;;;;;3.58;1.70;;;;;;;33.81;28.43;99442.91;12226969;19;20015;-80
2022/09/07 13:51:23;;;;;;;4.72;1.55;;;;;;;33.31;29.06;99445.13;12210361;19;20015;-80
2022/09/07 13:55:37;;;;;;;1.95;1.40;;;;;;;33.03;29.58;99444.00;12223200;19;20030;-80
2022/09/07 13:59:41;;;;;;;2.63;1.45;;;;;;;32.24;29.56;99446.00;12203794;19;20014;-80
2022/09/07 14:04:06;;;;;;;3.28;1.40;;;;;;;32.18;29.62;99445.59;12226888;19;20042;-80
2022/09/07 14:08:25;;;;;;;2.50;1.10;;;;;;;31.60;29.58;99438.09;12227148;19;20007;-79
2022/09/07 14:12:29;;;;;;;3.95;1.45;;;;;;;31.13;29.73;99428.50;12208437;19;20015;-79
2022/09/07 14:16:32;;;;;;;2.28;1.05;;;;;;;30.79;29.90;99440.09;12229087;19;20011;-79
2022/09/07 14:20:40;;;;;;;2.67;1.23;;;;;;;30.55;29.58;99432.97;12211323;19;20013;-79
2022/09/07 14:24:47;;;;;;;2.38;1.00;;;;;;;30.41;30.79;99425.13;12228074;19;20478;-79
2022/09/07 14:28:52;;;;;;;2.78;1.08;;;;;;;30.46;30.50;99432.50;12228949;19;20019;-81
2022/09/07 14:33:02;;;;;;;4.97;1.33;;;;;;;30.42;31.05;99428.78;12206952;19;20468;-79
2022/09/07 14:37:11;;;;;;;2.72;1.30;;;;;;;30.60;30.37;99415.53;12227631;19;20058;-79
2022/09/07 14:41:16;;;;;;;2.97;1.30;;;;;;;30.60;30.53;99414.72;12231413;19;20006;-79
2022/09/07 14:45:21;;;;;;;5.05;1.50;;;;;;;30.56;32.17;99419.56;12204582;19;20017;-78
2022/09/07 14:49:23;;;;;;;7.13;1.55;;;;;;;30.53;33.12;99420.38;12225042;19;20042;-79
2022/09/07 14:53:24;;;;;;;;;;;;;;;29.79;34.62;99415.59;12207893;19;20021;-79
2022/09/07 14:57:41;;;;;;;3.20;1.60;;;;;;;29.30;35.17;99406.06;12221048;19;20274;-78
2022/09/07 15:01:43;;;;;;;2.85;1.23;;;;;;;28.99;35.61;99412.91;12217797;19;20017;-78
2022/09/07 15:05:47;;;;;;;1.92;1.38;;;;;;;28.67;36.25;99406.75;12192681;19;20127;-78
2022/09/07 15:09:48;;;;;;;2.60;1.38;;;;;;;28.28;36.18;99404.09;12216357;19;19999;-78
2022/09/07 15:13:56;;;;;;;6.15;1.60;;;;;;;27.91;36.90;99387.66;12218127;19;20050;-78
2022/09/07 15:18:01;;;;;;;5.50;1.20;;;;;;;27.77;36.85;99373.22;12199104;19;20014;-78
2022/09/07 15:22:10;;;;;;;2.10;1.33;;;;;;;27.66;37.89;99376.69;12220345;19;20381;-78
2022/09/07 15:26:14;;;;;;;2.00;1.30;;;;;;;27.64;37.78;99375.41;12220522;19;20007;-78
2022/09/07 15:30:36;;;;;;;1.90;1.20;;;;;;;27.81;37.42;99371.28;12197142;19;20003;-78
2022/09/07 15:34:38;;;;;;;3.63;1.40;;;;;;;27.88;37.67;99365.78;12214906;19;20014;-78
2022/09/07 15:38:39;;;;;;;4.18;1.45;;;;;;;27.82;37.68;99368.09;12199461;19;20014;-78
2022/09/07 15:43:01;;;;;;;5.32;1.52;;;;;;;27.93;37.75;99368.28;12220768;19;20011;-78
2022/09/07 15:47:17;;;;;;;2.60;1.20;;;;;;;28.21;37.80;99361.47;12214485;19;20011;-77
2022/09/07 15:51:39;;;;;;;3.50;1.30;;;;;;;28.38;38.02;99361.75;12201945;19;20015;-78
2022/09/07 15:56:02;;;;;;;3.60;1.38;;;;;;;28.08;37.69;99363.66;12240123;19;20435;-78
2022/09/07 16:00:05;;;;;;;3.58;1.80;;;;;;;27.73;38.29;99365.47;12204925;19;20011;-78
2022/09/07 16:04:14;;;;;;;2.63;1.30;;;;;;;27.60;38.43;99366.84;12233582;19;20508;-78
2022/09/07 16:08:17;;;;;;;2.67;1.33;;;;;;;27.37;39.38;99363.16;12233845;19;20014;-78
2022/09/07 16:12:26;;;;;;;5.53;1.73;;;;;;;27.10;39.41;99364.97;12207721;19;20014;-77
2022/09/07 16:16:47;;;;;;;2.25;1.50;;;;;;;26.88;40.19;99366.53;12234252;19;20014;-77
2022/09/07 16:21:11;;;;;;;3.08;1.30;;;;;;;26.88;40.31;99363.72;12216855;19;20010;-78
2022/09/07 16:25:13;;;;;;;4.30;1.30;;;;;;;26.80;40.88;99360.75;12220787;19;20025;-77
2022/09/07 16:29:15;;;;;;;4.13;1.40;;;;;;;26.71;40.96;99359.28;12212116;19;20034;-78
2022/09/07 16:33:20;;;;;;;2.03;1.27;;;;;;;26.52;41.40;99346.78;12187966;19;20018;-77
2022/09/07 16:37:29;;;;;;;6.47;1.60;;;;;;;26.39;42.04;99358.53;12203649;19;20022;-77
2022/09/07 16:41:32;;;;;;;4.30;1.43;;;;;;;26.26;41.67;99352.97;12197987;19;20007;-78
2022/09/07 16:45:33;;;;;;;4.80;1.55;;;;;;;26.19;41.98;99346.34;12213445;19;20074;-77
2022/09/07 16:49:55;;;;;;;3.47;1.40;;;;;;;26.06;42.07;99340.81;12213701;19;20162;-77
2022/09/07 16:53:57;;;;;;;5.83;1.60;;;;;;;25.86;42.58;99348.38;12188875;19;20024;-77
2022/09/07 16:57:59;;;;;;;;;;;;;;;25.69;42.95;99354.31;12215112;19;20041;-77
2022/09/07 17:02:20;;;;;;;6.63;1.80;;;;;;;25.65;43.42;99353.41;12216481;19;19911;-77
2022/09/07 17:06:25;;;;;;;4.87;1.67;;;;;;;25.53;43.76;99345.84;12189893;19;20090;-77
2022/09/07 17:10:27;;;;;;;2.40;1.63;;;;;;;25.40;44.18;99339.47;12210560;19;20401;-77
2022/09/07 17:14:29;;;;;;;;;;;;;;;25.31;43.94;99343.59;12191545;19;20006;-77
2022/09/07 17:18:32;;;;;;;2.45;1.60;;;;;;;25.23;44.64;99334.97;12211579;19;20356;-77
2022/09/07 17:22:53;;;;;;;4.60;1.77;;;;;;;25.11;45.43;99337.00;12213128;19;20027;-77
2022/09/07 17:26:55;;;;;;;3.47;1.40;;;;;;;24.98;45.73;99341.84;12184542;19;20022;-77
2022/09/07 17:31:11;;;;;;;3.30;1.60;;;;;;;24.90;46.46;99351.28;12222479;19;20023;-77
2022/09/07 17:35:36;;;;;;;4.50;1.50;;;;;;;24.72;46.50;99331.84;12192261;19;20014;-77
2022/09/07 17:39:38;;;;;;;7.00;1.60;;;;;;;24.62;46.71;99331.50;12221483;19;20010;-77
2022/09/07 17:43:40;;;;;;;4.70;1.42;;;;;;;24.49;46.83;99342.78;12215145;19;20010;-77
2022/09/07 17:47:48;;;;;;;5.53;1.60;;;;;;;24.39;47.14;99339.59;12191665;19;20014;-76
2022/09/07 17:51:49;;;;;;;3.53;1.83;;;;;;;24.26;47.56;99335.97;12216910;19;20020;-76
2022/09/07 17:55:51;;;;;;;5.47;1.88;;;;;;;24.06;48.33;99338.56;12210394;19;20034;-77
2022/09/07 17:59:53;;;;;;;5.78;1.85;;;;;;;23.88;49.52;99337.13;12193677;19;20014;-78
2022/09/07 18:04:13;;;;;;;3.80;1.25;;;;;;;23.66;50.66;99332.75;12214243;19;20488;-77
2022/09/07 18:08:14;;;;;;;;;;;;;;;23.42;51.43;99333.53;12212591;19;20020;-77
2022/09/07 18:12:16;;;;;;;3.45;1.63;;;;;;;23.29;52.40;99329.00;12192458;19;19911;-77
2022/09/07 18:16:21;;;;;;;2.88;1.30;;;;;;;23.17;53.46;99338.22;12211823;19;20006;-77
2022/09/07 18:20:24;;;;;;;2.95;1.80;;;;;;;23.02;53.88;99338.88;12197793;19;20015;-77
2022/09/07 18:24:26;;;;;;;4.90;1.25;;;;;;;22.89;54.98;99349.22;12210075;19;20066;-77
2022/09/07 18:28:28;;;;;;;6.23;1.80;;;;;;;22.76;55.17;99345.53;12211990;19;20058;-77
2022/09/07 18:32:54;;;;;;;6.35;1.55;;;;;;;22.64;55.32;99348.25;12191169;19;20014;-77
2022/09/07 18:36:57;;;;;;;3.63;1.50;;;;;;;22.54;55.99;99335.44;12223599;19;20501;-77
2022/09/07 18:41:10;;;;;;;5.22;1.63;;;;;;;22.51;57.09;99336.09;12226590;19;20282;-77
2022/09/07 18:45:12;;;;;;;4.53;1.55;;;;;;;22.51;57.07;99342.53;12187680;19;20018;-77
2022/09/07 18:49:29;;;;;;;2.83;1.55;;;;;;;22.52;57.52;99341.41;12212889;19;20706;-77
2022/09/07 18:53:31;;;;;;;7.65;2.10;;;;;;;22.52;58.60;99335.78;12183885;19;20033;-77
2022/09/07 18:57:33;;;;;;;2.28;1.58;;;;;;;22.55;58.81;99337.09;12210562;19;20014;-77
2022/09/07 19:01:37;;;;;;;4.25;1.83;;;;;;;22.52;60.06;99332.97;12208590;19;20018;-77
2022/09/07 19:05:39;;;;;;;4.20;2.10;;;;;;;22.46;59.90;99337.16;12185773;19;20018;-77
2022/09/07 19:09:56;;;;;;;3.72;1.88;;;;;;;22.42;59.87;99340.97;12207750;19;20262;-77